sensor_id;sensor_type;location;lat;lon;timestamp;P1;durP1;ratioP1;P2;durP2;ratioP2
26080;SDS011;13991;51.174;4.438;2022-12-20T00:00:43;4.27;;;2.07;;
26080;SDS011;13991;51.174;4.438;2022-12-20T00:03:08;5.83;;;2.07;;
26080;SDS011;13991;51.174;4.438;2022-12-20T00:05:38;5.23;;;1.53;;
26080;SDS011;13991;51.174;4.438;2022-12-20T00:08:05;8.70;;;1.60;;
26080;SDS011;13991;51.174;4.438;2022-12-20T00:10:38;5.73;;;1.73;;
26080;SDS011;13991;51.174;4.438;2022-12-20T00:13:05;7.57;;;1.60;;
26080;SDS011;13991;51.174;4.438;2022-12-20T00:15:31;5.73;;;2.07;;
26080;SDS011;13991;51.174;4.438;2022-12-20T00:17:57;7.97;;;2.00;;
26080;SDS011;13991;51.174;4.438;2022-12-20T00:20:24;3.63;;;1.40;;
26080;SDS011;13991;51.174;4.438;2022-12-20T00:22:50;5.77;;;1.40;;
26080;SDS011;13991;51.174;4.438;2022-12-20T00:25:16;4.10;;;1.50;;
26080;SDS011;13991;51.174;4.438;2022-12-20T00:27:44;8.13;;;2.10;;
26080;SDS011;13991;51.174;4.438;2022-12-20T00:30:09;5.00;;;1.83;;
26080;SDS011;13991;51.174;4.438;2022-12-20T00:32:35;9.43;;;2.40;;
26080;SDS011;13991;51.174;4.438;2022-12-20T00:35:01;4.37;;;1.57;;
26080;SDS011;13991;51.174;4.438;2022-12-20T00:37:27;5.73;;;2.00;;
26080;SDS011;13991;51.174;4.438;2022-12-20T00:39:52;8.40;;;2.00;;
26080;SDS011;13991;51.174;4.438;2022-12-20T00:42:18;7.83;;;1.77;;
26080;SDS011;13991;51.174;4.438;2022-12-20T00:44:43;4.13;;;1.60;;
26080;SDS011;13991;51.174;4.438;2022-12-20T00:47:09;6.43;;;1.90;;
26080;SDS011;13991;51.174;4.438;2022-12-20T00:49:35;6.20;;;2.10;;
26080;SDS011;13991;51.174;4.438;2022-12-20T00:52:00;7.87;;;2.00;;
26080;SDS011;13991;51.174;4.438;2022-12-20T00:54:26;9.07;;;2.37;;
26080;SDS011;13991;51.174;4.438;2022-12-20T00:56:52;4.27;;;1.90;;
26080;SDS011;13991;51.174;4.438;2022-12-20T00:59:17;4.37;;;1.70;;
26080;SDS011;13991;51.174;4.438;2022-12-20T01:01:45;5.10;;;2.37;;
26080;SDS011;13991;51.174;4.438;2022-12-20T01:04:11;4.47;;;1.80;;
26080;SDS011;13991;51.174;4.438;2022-12-20T01:06:37;9.13;;;2.20;;
26080;SDS011;13991;51.174;4.438;2022-12-20T01:09:03;9.07;;;1.67;;
26080;SDS011;13991;51.174;4.438;2022-12-20T01:11:30;6.13;;;2.07;;
26080;SDS011;13991;51.174;4.438;2022-12-20T01:13:58;12.83;;;2.13;;
26080;SDS011;13991;51.174;4.438;2022-12-20T01:16:36;6.13;;;2.60;;
26080;SDS011;13991;51.174;4.438;2022-12-20T01:19:04;9.27;;;2.47;;
26080;SDS011;13991;51.174;4.438;2022-12-20T01:21:31;4.87;;;2.07;;
26080;SDS011;13991;51.174;4.438;2022-12-20T01:23:58;7.40;;;2.23;;
26080;SDS011;13991;51.174;4.438;2022-12-20T01:26:24;4.57;;;1.90;;
26080;SDS011;13991;51.174;4.438;2022-12-20T01:28:53;6.13;;;2.20;;
26080;SDS011;13991;51.174;4.438;2022-12-20T01:31:20;9.27;;;2.23;;
26080;SDS011;13991;51.174;4.438;2022-12-20T01:33:47;9.03;;;2.33;;
26080;SDS011;13991;51.174;4.438;2022-12-20T01:36:16;4.90;;;2.00;;
26080;SDS011;13991;51.174;4.438;2022-12-20T01:38:44;6.17;;;1.97;;
26080;SDS011;13991;51.174;4.438;2022-12-20T01:41:13;5.47;;;1.87;;
26080;SDS011;13991;51.174;4.438;2022-12-20T01:43:53;6.50;;;2.10;;
26080;SDS011;13991;51.174;4.438;2022-12-20T01:46:21;6.27;;;1.70;;
26080;SDS011;13991;51.174;4.438;2022-12-20T01:49:10;9.03;;;2.07;;
26080;SDS011;13991;51.174;4.438;2022-12-20T01:51:35;8.73;;;1.77;;
26080;SDS011;13991;51.174;4.438;2022-12-20T01:54:12;9.63;;;2.00;;
26080;SDS011;13991;51.174;4.438;2022-12-20T01:57:06;4.13;;;2.03;;
26080;SDS011;13991;51.174;4.438;2022-12-20T01:59:45;9.73;;;2.03;;
26080;SDS011;13991;51.174;4.438;2022-12-20T02:02:12;4.97;;;1.90;;
26080;SDS011;13991;51.174;4.438;2022-12-20T02:04:38;5.47;;;2.07;;
26080;SDS011;13991;51.174;4.438;2022-12-20T02:07:04;5.40;;;1.73;;
26080;SDS011;13991;51.174;4.438;2022-12-20T02:09:32;3.53;;;1.87;;
26080;SDS011;13991;51.174;4.438;2022-12-20T02:12:09;7.67;;;1.90;;
26080;SDS011;13991;51.174;4.438;2022-12-20T02:17:44;6.70;;;1.97;;
26080;SDS011;13991;51.174;4.438;2022-12-20T02:20:28;5.70;;;1.37;;
26080;SDS011;13991;51.174;4.438;2022-12-20T02:31:26;9.00;;;1.97;;
26080;SDS011;13991;51.174;4.438;2022-12-20T02:33:57;7.23;;;1.67;;
26080;SDS011;13991;51.174;4.438;2022-12-20T02:36:24;9.67;;;2.37;;
26080;SDS011;13991;51.174;4.438;2022-12-20T02:38:50;4.37;;;1.87;;
26080;SDS011;13991;51.174;4.438;2022-12-20T02:41:24;14.63;;;1.40;;
26080;SDS011;13991;51.174;4.438;2022-12-20T02:44:05;8.23;;;1.93;;
26080;SDS011;13991;51.174;4.438;2022-12-20T02:46:53;5.60;;;1.60;;
26080;SDS011;13991;51.174;4.438;2022-12-20T02:49:22;5.03;;;2.20;;
26080;SDS011;13991;51.174;4.438;2022-12-20T02:51:53;8.97;;;1.80;;
26080;SDS011;13991;51.174;4.438;2022-12-20T02:54:20;4.70;;;1.67;;
26080;SDS011;13991;51.174;4.438;2022-12-20T02:56:51;5.60;;;1.97;;
26080;SDS011;13991;51.174;4.438;2022-12-20T02:59:29;5.93;;;2.17;;
26080;SDS011;13991;51.174;4.438;2022-12-20T03:02:02;7.17;;;2.10;;
26080;SDS011;13991;51.174;4.438;2022-12-20T03:04:30;8.57;;;1.93;;
26080;SDS011;13991;51.174;4.438;2022-12-20T03:07:06;9.30;;;1.70;;
26080;SDS011;13991;51.174;4.438;2022-12-20T03:09:35;5.60;;;1.50;;
26080;SDS011;13991;51.174;4.438;2022-12-20T03:12:03;3.63;;;1.57;;
26080;SDS011;13991;51.174;4.438;2022-12-20T03:14:31;5.43;;;1.63;;
26080;SDS011;13991;51.174;4.438;2022-12-20T03:16:56;4.60;;;1.50;;
26080;SDS011;13991;51.174;4.438;2022-12-20T03:19:22;5.50;;;1.90;;
26080;SDS011;13991;51.174;4.438;2022-12-20T03:21:48;4.70;;;1.80;;
26080;SDS011;13991;51.174;4.438;2022-12-20T03:24:14;8.87;;;2.37;;
26080;SDS011;13991;51.174;4.438;2022-12-20T03:26:40;7.50;;;1.80;;
26080;SDS011;13991;51.174;4.438;2022-12-20T03:29:06;8.83;;;1.87;;
26080;SDS011;13991;51.174;4.438;2022-12-20T03:31:32;10.17;;;1.87;;
26080;SDS011;13991;51.174;4.438;2022-12-20T03:33:59;3.47;;;1.70;;
26080;SDS011;13991;51.174;4.438;2022-12-20T03:36:24;7.77;;;2.20;;
26080;SDS011;13991;51.174;4.438;2022-12-20T03:38:50;3.13;;;1.57;;
26080;SDS011;13991;51.174;4.438;2022-12-20T03:41:17;5.07;;;1.43;;
26080;SDS011;13991;51.174;4.438;2022-12-20T03:43:45;6.87;;;1.83;;
26080;SDS011;13991;51.174;4.438;2022-12-20T03:46:10;6.63;;;1.50;;
26080;SDS011;13991;51.174;4.438;2022-12-20T03:48:36;5.87;;;1.63;;
26080;SDS011;13991;51.174;4.438;2022-12-20T03:51:02;4.77;;;1.47;;
26080;SDS011;13991;51.174;4.438;2022-12-20T03:53:28;6.00;;;1.70;;
26080;SDS011;13991;51.174;4.438;2022-12-20T03:55:54;11.73;;;1.77;;
26080;SDS011;13991;51.174;4.438;2022-12-20T03:58:20;5.57;;;1.83;;
26080;SDS011;13991;51.174;4.438;2022-12-20T04:00:46;7.37;;;1.47;;
26080;SDS011;13991;51.174;4.438;2022-12-20T04:03:11;4.90;;;1.67;;
26080;SDS011;13991;51.174;4.438;2022-12-20T04:05:37;4.07;;;2.00;;
26080;SDS011;13991;51.174;4.438;2022-12-20T04:08:03;7.47;;;1.97;;
26080;SDS011;13991;51.174;4.438;2022-12-20T04:10:28;7.63;;;1.77;;
26080;SDS011;13991;51.174;4.438;2022-12-20T04:12:54;9.27;;;1.10;;
26080;SDS011;13991;51.174;4.438;2022-12-20T04:15:20;11.00;;;1.33;;
26080;SDS011;13991;51.174;4.438;2022-12-20T04:17:45;6.67;;;1.40;;
26080;SDS011;13991;51.174;4.438;2022-12-20T04:20:14;9.07;;;1.67;;
26080;SDS011;13991;51.174;4.438;2022-12-20T04:22:44;9.23;;;2.23;;
26080;SDS011;13991;51.174;4.438;2022-12-20T04:25:15;2.50;;;1.10;;
26080;SDS011;13991;51.174;4.438;2022-12-20T04:27:42;6.90;;;1.40;;
26080;SDS011;13991;51.174;4.438;2022-12-20T04:30:08;4.43;;;1.80;;
26080;SDS011;13991;51.174;4.438;2022-12-20T04:32:34;11.97;;;1.70;;
26080;SDS011;13991;51.174;4.438;2022-12-20T04:35:00;4.27;;;1.50;;
26080;SDS011;13991;51.174;4.438;2022-12-20T04:37:26;11.73;;;1.60;;
26080;SDS011;13991;51.174;4.438;2022-12-20T04:39:51;9.57;;;2.30;;
26080;SDS011;13991;51.174;4.438;2022-12-20T04:42:17;12.13;;;1.40;;
26080;SDS011;13991;51.174;4.438;2022-12-20T04:44:43;7.63;;;1.50;;
26080;SDS011;13991;51.174;4.438;2022-12-20T04:47:08;3.40;;;1.13;;
26080;SDS011;13991;51.174;4.438;2022-12-20T04:49:34;9.00;;;1.50;;
26080;SDS011;13991;51.174;4.438;2022-12-20T04:52:00;2.33;;;0.83;;
26080;SDS011;13991;51.174;4.438;2022-12-20T04:54:46;3.47;;;1.30;;
26080;SDS011;13991;51.174;4.438;2022-12-20T04:57:13;8.77;;;1.67;;
26080;SDS011;13991;51.174;4.438;2022-12-20T04:59:38;8.77;;;1.77;;
26080;SDS011;13991;51.174;4.438;2022-12-20T05:02:04;5.30;;;1.43;;
26080;SDS011;13991;51.174;4.438;2022-12-20T05:04:30;4.37;;;1.47;;
26080;SDS011;13991;51.174;4.438;2022-12-20T05:06:56;8.97;;;1.60;;
26080;SDS011;13991;51.174;4.438;2022-12-20T05:09:21;5.47;;;1.80;;
26080;SDS011;13991;51.174;4.438;2022-12-20T05:11:48;5.17;;;1.40;;
26080;SDS011;13991;51.174;4.438;2022-12-20T05:14:14;10.03;;;1.37;;
26080;SDS011;13991;51.174;4.438;2022-12-20T05:16:39;5.27;;;1.37;;
26080;SDS011;13991;51.174;4.438;2022-12-20T05:19:05;6.90;;;1.53;;
26080;SDS011;13991;51.174;4.438;2022-12-20T05:21:31;6.40;;;1.33;;
26080;SDS011;13991;51.174;4.438;2022-12-20T05:24:15;4.03;;;1.07;;
26080;SDS011;13991;51.174;4.438;2022-12-20T05:26:59;5.50;;;1.20;;
26080;SDS011;13991;51.174;4.438;2022-12-20T05:29:25;8.23;;;1.57;;
26080;SDS011;13991;51.174;4.438;2022-12-20T05:31:50;6.93;;;1.57;;
26080;SDS011;13991;51.174;4.438;2022-12-20T05:34:16;7.03;;;1.83;;
26080;SDS011;13991;51.174;4.438;2022-12-20T05:36:42;4.30;;;1.13;;
26080;SDS011;13991;51.174;4.438;2022-12-20T05:39:08;6.67;;;1.17;;
26080;SDS011;13991;51.174;4.438;2022-12-20T05:41:35;5.03;;;1.03;;
26080;SDS011;13991;51.174;4.438;2022-12-20T05:44:05;4.87;;;1.50;;
26080;SDS011;13991;51.174;4.438;2022-12-20T05:46:31;5.53;;;1.20;;
26080;SDS011;13991;51.174;4.438;2022-12-20T05:48:57;11.87;;;1.67;;
26080;SDS011;13991;51.174;4.438;2022-12-20T05:51:23;6.60;;;1.33;;
26080;SDS011;13991;51.174;4.438;2022-12-20T05:53:48;8.67;;;1.97;;
26080;SDS011;13991;51.174;4.438;2022-12-20T05:56:14;13.10;;;1.47;;
26080;SDS011;13991;51.174;4.438;2022-12-20T05:58:40;8.27;;;1.27;;
26080;SDS011;13991;51.174;4.438;2022-12-20T06:01:06;4.47;;;1.27;;
26080;SDS011;13991;51.174;4.438;2022-12-20T06:03:33;8.17;;;1.53;;
26080;SDS011;13991;51.174;4.438;2022-12-20T06:05:58;3.17;;;1.17;;
26080;SDS011;13991;51.174;4.438;2022-12-20T06:08:25;10.67;;;1.10;;
26080;SDS011;13991;51.174;4.438;2022-12-20T06:10:51;4.30;;;1.33;;
26080;SDS011;13991;51.174;4.438;2022-12-20T06:13:16;5.70;;;1.43;;
26080;SDS011;13991;51.174;4.438;2022-12-20T06:15:42;5.13;;;1.30;;
26080;SDS011;13991;51.174;4.438;2022-12-20T06:18:08;2.63;;;0.97;;
26080;SDS011;13991;51.174;4.438;2022-12-20T06:20:35;6.00;;;1.47;;
26080;SDS011;13991;51.174;4.438;2022-12-20T06:23:01;2.53;;;1.03;;
26080;SDS011;13991;51.174;4.438;2022-12-20T06:25:28;3.57;;;1.23;;
26080;SDS011;13991;51.174;4.438;2022-12-20T06:27:54;5.90;;;1.70;;
26080;SDS011;13991;51.174;4.438;2022-12-20T06:30:20;4.17;;;1.30;;
26080;SDS011;13991;51.174;4.438;2022-12-20T06:32:46;18.50;;;1.70;;
26080;SDS011;13991;51.174;4.438;2022-12-20T06:35:12;10.70;;;1.33;;
26080;SDS011;13991;51.174;4.438;2022-12-20T06:37:38;5.20;;;1.20;;
26080;SDS011;13991;51.174;4.438;2022-12-20T06:40:05;3.10;;;0.90;;
26080;SDS011;13991;51.174;4.438;2022-12-20T06:42:32;2.83;;;1.20;;
26080;SDS011;13991;51.174;4.438;2022-12-20T06:44:58;7.30;;;1.30;;
26080;SDS011;13991;51.174;4.438;2022-12-20T06:47:23;12.50;;;1.07;;
26080;SDS011;13991;51.174;4.438;2022-12-20T06:49:49;8.63;;;1.27;;
26080;SDS011;13991;51.174;4.438;2022-12-20T06:52:15;7.30;;;1.03;;
26080;SDS011;13991;51.174;4.438;2022-12-20T06:54:40;3.40;;;1.07;;
26080;SDS011;13991;51.174;4.438;2022-12-20T06:57:06;4.87;;;1.17;;
26080;SDS011;13991;51.174;4.438;2022-12-20T06:59:32;8.87;;;1.27;;
26080;SDS011;13991;51.174;4.438;2022-12-20T07:01:57;3.63;;;1.20;;
26080;SDS011;13991;51.174;4.438;2022-12-20T07:04:23;4.30;;;0.90;;
26080;SDS011;13991;51.174;4.438;2022-12-20T07:06:48;3.23;;;1.03;;
26080;SDS011;13991;51.174;4.438;2022-12-20T07:09:15;3.17;;;1.13;;
26080;SDS011;13991;51.174;4.438;2022-12-20T07:11:40;11.73;;;1.30;;
26080;SDS011;13991;51.174;4.438;2022-12-20T07:14:07;4.67;;;0.87;;
26080;SDS011;13991;51.174;4.438;2022-12-20T07:16:33;6.50;;;1.53;;
26080;SDS011;13991;51.174;4.438;2022-12-20T07:19:00;4.80;;;1.27;;
26080;SDS011;13991;51.174;4.438;2022-12-20T07:21:26;7.93;;;1.80;;
26080;SDS011;13991;51.174;4.438;2022-12-20T07:23:53;12.33;;;1.43;;
26080;SDS011;13991;51.174;4.438;2022-12-20T07:26:19;6.47;;;1.50;;
26080;SDS011;13991;51.174;4.438;2022-12-20T07:28:45;9.83;;;1.17;;
26080;SDS011;13991;51.174;4.438;2022-12-20T07:31:11;9.97;;;1.70;;
26080;SDS011;13991;51.174;4.438;2022-12-20T07:33:36;5.97;;;1.33;;
26080;SDS011;13991;51.174;4.438;2022-12-20T07:36:06;5.13;;;1.47;;
26080;SDS011;13991;51.174;4.438;2022-12-20T07:38:35;8.20;;;1.70;;
26080;SDS011;13991;51.174;4.438;2022-12-20T07:41:22;6.67;;;1.30;;
26080;SDS011;13991;51.174;4.438;2022-12-20T07:43:49;9.57;;;0.97;;
26080;SDS011;13991;51.174;4.438;2022-12-20T07:46:15;8.93;;;1.23;;
26080;SDS011;13991;51.174;4.438;2022-12-20T07:48:41;23.73;;;4.90;;
26080;SDS011;13991;51.174;4.438;2022-12-20T07:51:09;11.97;;;2.70;;
26080;SDS011;13991;51.174;4.438;2022-12-20T07:53:39;16.50;;;2.77;;
26080;SDS011;13991;51.174;4.438;2022-12-20T07:56:09;6.97;;;1.70;;
26080;SDS011;13991;51.174;4.438;2022-12-20T07:58:36;4.50;;;1.37;;
26080;SDS011;13991;51.174;4.438;2022-12-20T08:01:04;10.13;;;2.27;;
26080;SDS011;13991;51.174;4.438;2022-12-20T08:03:32;18.97;;;3.60;;
26080;SDS011;13991;51.174;4.438;2022-12-20T08:06:02;13.17;;;2.23;;
26080;SDS011;13991;51.174;4.438;2022-12-20T08:08:33;8.77;;;1.90;;
26080;SDS011;13991;51.174;4.438;2022-12-20T08:11:02;8.63;;;1.93;;
26080;SDS011;13991;51.174;4.438;2022-12-20T08:13:31;12.43;;;1.80;;
26080;SDS011;13991;51.174;4.438;2022-12-20T08:15:58;13.03;;;1.83;;
26080;SDS011;13991;51.174;4.438;2022-12-20T08:18:24;8.90;;;1.60;;
26080;SDS011;13991;51.174;4.438;2022-12-20T08:20:50;9.63;;;1.63;;
26080;SDS011;13991;51.174;4.438;2022-12-20T08:23:15;7.00;;;1.27;;
26080;SDS011;13991;51.174;4.438;2022-12-20T08:25:41;8.47;;;1.83;;
26080;SDS011;13991;51.174;4.438;2022-12-20T08:28:07;14.63;;;1.70;;
26080;SDS011;13991;51.174;4.438;2022-12-20T08:30:33;11.50;;;1.47;;
26080;SDS011;13991;51.174;4.438;2022-12-20T08:32:58;16.13;;;2.17;;
26080;SDS011;13991;51.174;4.438;2022-12-20T08:35:24;11.23;;;2.67;;
26080;SDS011;13991;51.174;4.438;2022-12-20T08:37:50;5.07;;;1.70;;
26080;SDS011;13991;51.174;4.438;2022-12-20T08:40:16;12.57;;;1.83;;
26080;SDS011;13991;51.174;4.438;2022-12-20T08:42:43;7.43;;;1.83;;
26080;SDS011;13991;51.174;4.438;2022-12-20T08:45:09;5.53;;;1.50;;
26080;SDS011;13991;51.174;4.438;2022-12-20T08:47:35;7.27;;;1.90;;
26080;SDS011;13991;51.174;4.438;2022-12-20T08:50:00;10.80;;;1.53;;
26080;SDS011;13991;51.174;4.438;2022-12-20T08:52:27;7.23;;;1.63;;
26080;SDS011;13991;51.174;4.438;2022-12-20T08:54:53;9.07;;;1.97;;
26080;SDS011;13991;51.174;4.438;2022-12-20T08:57:19;7.50;;;1.80;;
26080;SDS011;13991;51.174;4.438;2022-12-20T08:59:44;7.90;;;1.70;;
26080;SDS011;13991;51.174;4.438;2022-12-20T09:02:10;14.83;;;1.70;;
26080;SDS011;13991;51.174;4.438;2022-12-20T09:04:36;2.97;;;1.30;;
26080;SDS011;13991;51.174;4.438;2022-12-20T09:07:01;16.40;;;1.77;;
26080;SDS011;13991;51.174;4.438;2022-12-20T09:09:27;10.37;;;1.83;;
26080;SDS011;13991;51.174;4.438;2022-12-20T09:11:53;6.77;;;1.77;;
26080;SDS011;13991;51.174;4.438;2022-12-20T09:14:18;13.13;;;1.57;;
26080;SDS011;13991;51.174;4.438;2022-12-20T09:16:44;5.33;;;1.27;;
26080;SDS011;13991;51.174;4.438;2022-12-20T09:19:10;14.50;;;1.97;;
26080;SDS011;13991;51.174;4.438;2022-12-20T09:21:37;10.10;;;1.83;;
26080;SDS011;13991;51.174;4.438;2022-12-20T09:24:03;12.20;;;2.00;;
26080;SDS011;13991;51.174;4.438;2022-12-20T09:26:30;5.60;;;1.23;;
26080;SDS011;13991;51.174;4.438;2022-12-20T09:28:56;6.73;;;1.87;;
26080;SDS011;13991;51.174;4.438;2022-12-20T09:31:23;9.77;;;2.00;;
26080;SDS011;13991;51.174;4.438;2022-12-20T09:33:54;6.70;;;1.47;;
26080;SDS011;13991;51.174;4.438;2022-12-20T09:36:22;15.20;;;3.13;;
26080;SDS011;13991;51.174;4.438;2022-12-20T09:38:48;8.13;;;1.87;;
26080;SDS011;13991;51.174;4.438;2022-12-20T09:41:37;15.20;;;2.00;;
26080;SDS011;13991;51.174;4.438;2022-12-20T09:44:13;14.43;;;2.00;;
26080;SDS011;13991;51.174;4.438;2022-12-20T09:46:43;10.87;;;1.97;;
26080;SDS011;13991;51.174;4.438;2022-12-20T09:49:16;8.73;;;1.40;;
26080;SDS011;13991;51.174;4.438;2022-12-20T09:54:36;12.77;;;2.40;;
26080;SDS011;13991;51.174;4.438;2022-12-20T10:00:14;11.83;;;2.40;;
26080;SDS011;13991;51.174;4.438;2022-12-20T10:02:41;14.03;;;2.47;;
26080;SDS011;13991;51.174;4.438;2022-12-20T10:05:14;9.03;;;1.90;;
26080;SDS011;13991;51.174;4.438;2022-12-20T10:07:51;13.37;;;2.10;;
26080;SDS011;13991;51.174;4.438;2022-12-20T10:10:38;16.13;;;1.90;;
26080;SDS011;13991;51.174;4.438;2022-12-20T10:15:38;9.07;;;1.90;;
26080;SDS011;13991;51.174;4.438;2022-12-20T10:21:10;11.07;;;2.00;;
26080;SDS011;13991;51.174;4.438;2022-12-20T10:24:01;9.10;;;2.63;;
26080;SDS011;13991;51.174;4.438;2022-12-20T10:26:29;14.93;;;2.27;;
26080;SDS011;13991;51.174;4.438;2022-12-20T10:28:57;14.70;;;2.40;;
26080;SDS011;13991;51.174;4.438;2022-12-20T10:31:23;19.77;;;4.47;;
26080;SDS011;13991;51.174;4.438;2022-12-20T10:33:49;12.33;;;2.50;;
26080;SDS011;13991;51.174;4.438;2022-12-20T10:38:55;8.17;;;2.23;;
26080;SDS011;13991;51.174;4.438;2022-12-20T10:41:23;11.80;;;2.17;;
26080;SDS011;13991;51.174;4.438;2022-12-20T10:46:43;15.17;;;2.27;;
26080;SDS011;13991;51.174;4.438;2022-12-20T10:49:20;15.83;;;2.17;;
26080;SDS011;13991;51.174;4.438;2022-12-20T10:51:53;10.97;;;2.70;;
26080;SDS011;13991;51.174;4.438;2022-12-20T10:54:28;9.57;;;2.00;;
26080;SDS011;13991;51.174;4.438;2022-12-20T10:56:57;6.97;;;1.97;;
26080;SDS011;13991;51.174;4.438;2022-12-20T10:59:30;12.73;;;2.60;;
26080;SDS011;13991;51.174;4.438;2022-12-20T11:01:59;6.90;;;1.90;;
26080;SDS011;13991;51.174;4.438;2022-12-20T11:07:01;8.30;;;1.97;;
26080;SDS011;13991;51.174;4.438;2022-12-20T11:09:35;11.87;;;1.77;;
26080;SDS011;13991;51.174;4.438;2022-12-20T11:12:03;7.70;;;2.13;;
26080;SDS011;13991;51.174;4.438;2022-12-20T11:14:32;6.70;;;1.97;;
26080;SDS011;13991;51.174;4.438;2022-12-20T11:17:00;9.30;;;1.97;;
26080;SDS011;13991;51.174;4.438;2022-12-20T11:23:06;10.27;;;2.10;;
26080;SDS011;13991;51.174;4.438;2022-12-20T11:39:46;11.07;;;2.53;;
26080;SDS011;13991;51.174;4.438;2022-12-20T11:53:04;6.93;;;2.40;;
26080;SDS011;13991;51.174;4.438;2022-12-20T11:55:45;7.80;;;2.10;;
26080;SDS011;13991;51.174;4.438;2022-12-20T11:58:15;8.60;;;2.43;;
26080;SDS011;13991;51.174;4.438;2022-12-20T12:01:07;9.57;;;2.20;;
26080;SDS011;13991;51.174;4.438;2022-12-20T12:03:34;7.43;;;2.13;;
26080;SDS011;13991;51.174;4.438;2022-12-20T12:06:06;13.53;;;3.13;;
26080;SDS011;13991;51.174;4.438;2022-12-20T12:08:54;13.27;;;2.73;;
26080;SDS011;13991;51.174;4.438;2022-12-20T12:11:42;6.73;;;1.87;;
26080;SDS011;13991;51.174;4.438;2022-12-20T12:14:15;8.83;;;2.17;;
26080;SDS011;13991;51.174;4.438;2022-12-20T12:16:51;4.77;;;2.13;;
26080;SDS011;13991;51.174;4.438;2022-12-20T12:19:22;9.10;;;2.47;;
26080;SDS011;13991;51.174;4.438;2022-12-20T12:21:55;4.83;;;2.13;;
26080;SDS011;13991;51.174;4.438;2022-12-20T12:24:37;14.53;;;2.47;;
26080;SDS011;13991;51.174;4.438;2022-12-20T12:27:19;12.00;;;2.63;;
26080;SDS011;13991;51.174;4.438;2022-12-20T12:29:47;10.80;;;2.20;;
26080;SDS011;13991;51.174;4.438;2022-12-20T12:32:16;12.97;;;2.20;;
26080;SDS011;13991;51.174;4.438;2022-12-20T12:43:07;11.43;;;3.08;;
26080;SDS011;13991;51.174;4.438;2022-12-20T12:50:49;8.65;;;3.15;;
26080;SDS011;13991;51.174;4.438;2022-12-20T12:53:19;13.82;;;2.67;;
26080;SDS011;13991;51.174;4.438;2022-12-20T12:55:46;10.05;;;2.80;;
26080;SDS011;13991;51.174;4.438;2022-12-20T13:00:52;10.57;;;2.53;;
26080;SDS011;13991;51.174;4.438;2022-12-20T13:16:50;8.23;;;2.53;;
26080;SDS011;13991;51.174;4.438;2022-12-20T13:21:56;5.10;;;2.00;;
26080;SDS011;13991;51.174;4.438;2022-12-20T13:24:57;10.53;;;2.57;;
26080;SDS011;13991;51.174;4.438;2022-12-20T13:27:28;13.67;;;2.40;;
26080;SDS011;13991;51.174;4.438;2022-12-20T13:29:59;8.33;;;2.30;;
26080;SDS011;13991;51.174;4.438;2022-12-20T13:40:57;9.93;;;2.50;;
26080;SDS011;13991;51.174;4.438;2022-12-20T13:43:26;12.83;;;2.60;;
26080;SDS011;13991;51.174;4.438;2022-12-20T13:51:06;8.30;;;2.70;;
26080;SDS011;13991;51.174;4.438;2022-12-20T13:53:33;5.33;;;2.73;;
26080;SDS011;13991;51.174;4.438;2022-12-20T13:56:19;13.67;;;2.57;;
26080;SDS011;13991;51.174;4.438;2022-12-20T13:58:55;8.03;;;2.70;;
26080;SDS011;13991;51.174;4.438;2022-12-20T14:01:23;9.63;;;2.10;;
26080;SDS011;13991;51.174;4.438;2022-12-20T14:03:50;6.67;;;2.50;;
26080;SDS011;13991;51.174;4.438;2022-12-20T14:06:17;9.00;;;2.53;;
26080;SDS011;13991;51.174;4.438;2022-12-20T14:08:47;12.50;;;2.43;;
26080;SDS011;13991;51.174;4.438;2022-12-20T14:11:22;9.17;;;2.63;;
26080;SDS011;13991;51.174;4.438;2022-12-20T14:13:57;8.00;;;2.87;;
26080;SDS011;13991;51.174;4.438;2022-12-20T14:16:31;15.07;;;2.97;;
26080;SDS011;13991;51.174;4.438;2022-12-20T14:19:01;10.50;;;2.80;;
26080;SDS011;13991;51.174;4.438;2022-12-20T14:21:29;10.70;;;3.00;;
26080;SDS011;13991;51.174;4.438;2022-12-20T14:23:55;6.43;;;2.43;;
26080;SDS011;13991;51.174;4.438;2022-12-20T14:26:24;4.13;;;2.27;;
26080;SDS011;13991;51.174;4.438;2022-12-20T14:28:53;9.77;;;2.83;;
26080;SDS011;13991;51.174;4.438;2022-12-20T14:31:37;12.73;;;2.53;;
26080;SDS011;13991;51.174;4.438;2022-12-20T14:36:39;7.97;;;2.90;;
26080;SDS011;13991;51.174;4.438;2022-12-20T14:41:58;15.23;;;3.43;;
26080;SDS011;13991;51.174;4.438;2022-12-20T14:44:26;7.87;;;2.57;;
26080;SDS011;13991;51.174;4.438;2022-12-20T14:46:57;13.27;;;2.57;;
26080;SDS011;13991;51.174;4.438;2022-12-20T14:49:32;12.60;;;3.43;;
26080;SDS011;13991;51.174;4.438;2022-12-20T14:52:42;13.63;;;2.67;;
26080;SDS011;13991;51.174;4.438;2022-12-20T14:55:15;12.37;;;3.10;;
26080;SDS011;13991;51.174;4.438;2022-12-20T15:00:26;12.47;;;3.20;;
26080;SDS011;13991;51.174;4.438;2022-12-20T15:13:33;13.33;;;3.27;;
26080;SDS011;13991;51.174;4.438;2022-12-20T15:16:17;17.93;;;3.43;;
26080;SDS011;13991;51.174;4.438;2022-12-20T15:18:55;8.40;;;3.20;;
26080;SDS011;13991;51.174;4.438;2022-12-20T15:21:29;7.17;;;3.70;;
26080;SDS011;13991;51.174;4.438;2022-12-20T15:24:02;15.23;;;3.50;;
26080;SDS011;13991;51.174;4.438;2022-12-20T15:26:32;26.00;;;4.33;;
26080;SDS011;13991;51.174;4.438;2022-12-20T15:28:58;10.00;;;3.30;;
26080;SDS011;13991;51.174;4.438;2022-12-20T15:31:24;14.17;;;3.53;;
26080;SDS011;13991;51.174;4.438;2022-12-20T15:33:51;12.83;;;4.13;;
26080;SDS011;13991;51.174;4.438;2022-12-20T15:36:22;13.93;;;3.63;;
26080;SDS011;13991;51.174;4.438;2022-12-20T15:38:50;13.60;;;4.60;;
26080;SDS011;13991;51.174;4.438;2022-12-20T15:41:24;21.83;;;4.60;;
26080;SDS011;13991;51.174;4.438;2022-12-20T15:43:56;16.10;;;3.90;;
26080;SDS011;13991;51.174;4.438;2022-12-20T15:46:24;12.80;;;4.07;;
26080;SDS011;13991;51.174;4.438;2022-12-20T15:48:50;8.37;;;3.70;;
26080;SDS011;13991;51.174;4.438;2022-12-20T15:51:20;7.80;;;3.67;;
26080;SDS011;13991;51.174;4.438;2022-12-20T15:53:52;11.17;;;4.30;;
26080;SDS011;13991;51.174;4.438;2022-12-20T15:56:19;7.47;;;3.80;;
26080;SDS011;13991;51.174;4.438;2022-12-20T15:58:47;12.50;;;4.00;;
26080;SDS011;13991;51.174;4.438;2022-12-20T16:01:15;11.17;;;4.13;;
26080;SDS011;13991;51.174;4.438;2022-12-20T16:03:44;16.27;;;4.27;;
26080;SDS011;13991;51.174;4.438;2022-12-20T16:06:10;11.90;;;4.20;;
26080;SDS011;13991;51.174;4.438;2022-12-20T16:08:39;10.87;;;3.90;;
26080;SDS011;13991;51.174;4.438;2022-12-20T16:11:05;13.90;;;4.23;;
26080;SDS011;13991;51.174;4.438;2022-12-20T16:13:37;11.57;;;3.60;;
26080;SDS011;13991;51.174;4.438;2022-12-20T16:16:03;11.40;;;3.83;;
26080;SDS011;13991;51.174;4.438;2022-12-20T16:18:30;12.50;;;4.10;;
26080;SDS011;13991;51.174;4.438;2022-12-20T16:20:56;15.27;;;4.40;;
26080;SDS011;13991;51.174;4.438;2022-12-20T16:23:21;12.77;;;4.40;;
26080;SDS011;13991;51.174;4.438;2022-12-20T16:25:47;10.87;;;4.10;;
26080;SDS011;13991;51.174;4.438;2022-12-20T16:28:14;10.33;;;4.73;;
26080;SDS011;13991;51.174;4.438;2022-12-20T16:30:40;10.60;;;4.17;;
26080;SDS011;13991;51.174;4.438;2022-12-20T16:33:10;10.73;;;4.63;;
26080;SDS011;13991;51.174;4.438;2022-12-20T16:35:43;7.57;;;4.60;;
26080;SDS011;13991;51.174;4.438;2022-12-20T16:38:09;10.83;;;5.17;;
26080;SDS011;13991;51.174;4.438;2022-12-20T16:40:35;15.33;;;4.60;;
26080;SDS011;13991;51.174;4.438;2022-12-20T16:43:00;12.63;;;5.10;;
26080;SDS011;13991;51.174;4.438;2022-12-20T16:45:27;9.17;;;4.87;;
26080;SDS011;13991;51.174;4.438;2022-12-20T16:47:54;13.97;;;4.83;;
26080;SDS011;13991;51.174;4.438;2022-12-20T16:50:21;8.23;;;4.67;;
26080;SDS011;13991;51.174;4.438;2022-12-20T16:52:48;11.73;;;5.57;;
26080;SDS011;13991;51.174;4.438;2022-12-20T16:55:19;18.20;;;5.43;;
26080;SDS011;13991;51.174;4.438;2022-12-20T16:57:47;10.00;;;5.40;;